Falls City, TX (78113)

10:25 AM CDT on August 23, 2014 (GMT -0500)
Karnes County | Change Station
CLOSE
Current Station
Personal Weather Station
Location: Karnes City, TX
Elevation: 381 ft
Nearby Weather Stations
Active Advisory: Heat Advisory

Elev 381 ft 28.88 °N, 97.86 °W | Updated 10 minutes ago

Scattered Clouds
Scattered Clouds
84.7 °F
Feels Like 92 °F
N
4.9
Wind Variable Wind from WNW
Gusts 10.0 mph

Today
High -- | Low -- °F
--% Chance of Precip.
Yesterday
High -- | Low -- °F
Precip. -- in
7:05 AM 8:03 PM
Waning Crescent, 3% visible
Pressure 30.03 in
Visibility 10.0 miles
Clouds Scattered Clouds 2000 ft
Scattered Clouds 2500 ft
Heat Index 92 °F
Dew Point 74 °F
Humidity 71%
Rainfall 0.00 in
Snow Depth Not available.
UV 4 out of 12
Pollen 8.30 out of 12
Air Quality Not available.
Flu Activity Not available.
METAR KPEZ 231515Z AUTO 13008G14KT 10SM SCT020 SCT025 30/22 A3003 RMK AO2 T02980219

More Conditions Fewer Conditions

Pressure 30.03 in
Visibility 10.0 miles
Clouds Scattered Clouds 2000 ft
Scattered Clouds 2500 ft
Heat Index 92 °F
Dew Point 74 °F
Humidity 71%
Rainfall 0.00 in
Snow Depth Not available.
UV 4 out of 12
Pollen 8.30 out of 12
Air Quality Not available.
Flu Activity Not available.
METAR KPEZ 231515Z AUTO 13008G14KT 10SM SCT020 SCT025 30/22 A3003 RMK AO2 T02980219

More Conditions Fewer Conditions

10-Day Weather Forecast

Almanac

Astronomy

Aug. 23, 2014 Rise Set
Actual Time 7:05 AM CDT 8:03 PM CDT
Civil Twilight 6:40 AM CDT 8:28 PM CDT
Nautical Twilight 6:12 AM CDT 8:57 PM CDT
Astronomical Twilight 5:42 AM CDT 9:26 PM CDT
Moon 5:25 AM CDT 6:48 PM CDT
Length of Visible Light 13h 47m
Length of Day
12h 58m
Tomorrow will be 1m 36s shorter.
Waning Crescent, 3% of the Moon is Illuminated
Today
Waning Crescent
Aug 25
New
Sep 2
First Quarter
Sep 8
Full
Sep 15
Last Quarter

Today's Extremes

State Highs State Lows

Community

WunderPhotos

Upload Photos

1,746,495 photos uploaded!

WunderBlogs® & News

By Dr. Jeff Masters
Director of Meteorology, Weather Underground
By Kari Strenfel
Meteorologist, Weather Underground
By Christopher C. Burt
Weather Historian, Weather Underground
August 23, 2014
August 23, 2014
August 23, 2014

Nearby

Snow Depth

Station Depth Elevation
No new snow has been reported.

Earthquake Activity

City Distance Mag. Time & Date
No recent earthquake activity has been reported nearby.
Minimum magnitude displayed is 2.5.

Coastal Water Temperatures

Place Temperature
No Stations Reporting

Nearby Weather Stations